createdAt,value
2018-10-16T00:01:00.815Z,98098.85
2018-10-16T00:03:31.216Z,98102.13
2018-10-16T00:06:01.642Z,98111.66
2018-10-16T00:08:32.021Z,98105.77
2018-10-16T00:11:02.717Z,98109.60
2018-10-16T00:13:33.116Z,98104.53
2018-10-16T00:16:03.465Z,98113.78
2018-10-16T00:18:35.181Z,98107.34
2018-10-16T00:21:05.669Z,98113.51
2018-10-16T00:23:35.942Z,98114.15
2018-10-16T00:26:07.215Z,98114.89
2018-10-16T00:28:39.849Z,98112.45
2018-10-16T00:31:10.810Z,98115.81
2018-10-16T00:33:41.148Z,98110.28
2018-10-16T00:36:11.460Z,98111.87
2018-10-16T00:38:42.046Z,98115.02
2018-10-16T00:41:12.304Z,98118.93
2018-10-16T00:43:42.634Z,98114.27
2018-10-16T00:46:12.954Z,98113.78
2018-10-16T00:48:43.755Z,98120.59
2018-10-16T00:51:14.088Z,98123.02
2018-10-16T00:53:44.356Z,98129.48
2018-10-16T00:56:14.690Z,98127.50
2018-10-16T00:58:45.041Z,98125.98
2018-10-16T01:01:17.845Z,98133.08
2018-10-16T01:03:48.148Z,98126.77
2018-10-16T01:06:18.491Z,98133.30
2018-10-16T01:08:48.819Z,98127.61
2018-10-16T01:11:19.589Z,98131.42
2018-10-16T01:13:49.922Z,98131.53
2018-10-16T01:16:20.389Z,98131.88
2018-10-16T01:18:50.744Z,98143.34
2018-10-16T01:21:22.010Z,98139.56
2018-10-16T01:23:52.956Z,98143.48
2018-10-16T01:26:23.747Z,98144.68
2018-10-16T01:28:55.483Z,98140.30
2018-10-16T01:31:25.820Z,98143.66
2018-10-16T01:33:56.269Z,98148.97
2018-10-16T01:36:26.582Z,98141.50
2018-10-16T01:39:05.425Z,98147.17
2018-10-16T01:41:35.822Z,98142.11
2018-10-16T01:44:06.144Z,98134.63
2018-10-16T01:46:36.416Z,98139.73
2018-10-16T01:49:06.958Z,98135.25
2018-10-16T01:51:37.278Z,98136.84
2018-10-16T01:54:09.805Z,98132.14
2018-10-16T01:56:40.210Z,98141.03
2018-10-16T01:59:10.440Z,98139.80
2018-10-16T02:01:40.788Z,98138.78
2018-10-16T02:04:11.392Z,98135.64
2018-10-16T02:06:41.841Z,98138.78
2018-10-16T02:09:13.332Z,98144.48
2018-10-16T02:11:43.668Z,98140.19
2018-10-16T02:14:13.917Z,98143.19
2018-10-16T02:16:44.396Z,98146.20
2018-10-16T02:19:15.107Z,98144.73
2018-10-16T02:21:45.462Z,98148.28
2018-10-16T02:24:15.893Z,98151.88
2018-10-16T02:26:46.187Z,98151.98
2018-10-16T02:29:17.531Z,98156.74
2018-10-16T02:31:47.811Z,98160.27
2018-10-16T02:34:18.227Z,98155.77
2018-10-16T02:36:48.525Z,98163.44
2018-10-16T02:39:18.800Z,98159.59
2018-10-16T02:41:49.147Z,98165.48
2018-10-16T02:44:19.924Z,98163.95
2018-10-16T02:46:50.314Z,98163.89
2018-10-16T02:49:20.612Z,98169.50
2018-10-16T02:51:50.958Z,98170.64
2018-10-16T02:54:21.689Z,98166.89
2018-10-16T02:56:52.068Z,98170.13
2018-10-16T02:59:22.376Z,98169.90
2018-10-16T03:01:52.674Z,98171.66
2018-10-16T03:04:23.004Z,98176.12
2018-10-16T03:06:53.359Z,98185.27
2018-10-16T03:09:24.975Z,98180.60
2018-10-16T03:11:55.282Z,98194.95
2018-10-16T03:14:25.585Z,98184.22
2018-10-16T03:16:55.896Z,98194.27
2018-10-16T03:19:26.586Z,98185.81
2018-10-16T03:21:56.747Z,98191.36
2018-10-16T03:24:26.933Z,98189.28
2018-10-16T03:26:57.060Z,98203.06
2018-10-16T03:29:27.191Z,98196.55
2018-10-16T03:31:57.336Z,98203.98
2018-10-16T03:34:27.775Z,98198.56
2018-10-16T03:36:58.007Z,98203.56
2018-10-16T03:39:28.151Z,98203.85
2018-10-16T03:41:58.295Z,98204.87
2018-10-16T03:44:28.743Z,98206.17
2018-10-16T03:46:58.960Z,98196.48
2018-10-16T03:49:29.557Z,98207.08
2018-10-16T03:51:59.719Z,98202.81
2018-10-16T03:54:30.533Z,98211.64
2018-10-16T03:57:05.636Z,98210.41
2018-10-16T04:02:12.921Z,98212.39
2018-10-16T04:04:43.449Z,98211.38
2018-10-16T04:07:13.632Z,98212.53
2018-10-16T04:09:43.788Z,98215.53
2018-10-16T04:12:14.126Z,98219.38
2018-10-16T04:14:45.297Z,98215.46
2018-10-16T04:17:15.440Z,98221.53
2018-10-16T04:19:45.684Z,98218.66
2018-10-16T04:22:17.240Z,98212.30
2018-10-16T04:24:47.367Z,98217.87
2018-10-16T04:27:17.429Z,98223.32
2018-10-16T04:29:47.607Z,98222.67
2018-10-16T04:32:18.303Z,98219.08
2018-10-16T04:34:48.715Z,98219.02
2018-10-16T04:37:18.885Z,98219.47
2018-10-16T04:39:49.256Z,98221.17
2018-10-16T04:42:19.378Z,98220.09
2018-10-16T04:44:49.538Z,98214.06
2018-10-16T04:47:20.084Z,98220.94
2018-10-16T04:49:50.267Z,98223.78
2018-10-16T04:52:20.397Z,98225.77
2018-10-16T04:54:50.881Z,98219.86
2018-10-16T04:57:21.341Z,98218.39
2018-10-16T04:59:51.608Z,98219.08
2018-10-16T05:02:22.237Z,98225.17
2018-10-16T05:04:52.674Z,98223.31
2018-10-16T05:07:22.925Z,98220.64
2018-10-16T05:09:53.366Z,98224.28
2018-10-16T05:12:23.543Z,98229.92
2018-10-16T05:14:53.800Z,98227.19
2018-10-16T05:17:24.281Z,98229.51
2018-10-16T05:19:54.691Z,98231.27
2018-10-16T05:22:24.795Z,98236.03
2018-10-16T05:24:54.893Z,98233.72
2018-10-16T05:27:25.101Z,98238.87
2018-10-16T05:29:55.259Z,98246.37
2018-10-16T05:32:25.920Z,98243.59
2018-10-16T05:34:56.511Z,98247.12
2018-10-16T05:37:26.637Z,98249.56
2018-10-16T05:39:56.727Z,98251.03
2018-10-16T05:42:26.871Z,98264.58
2018-10-16T05:44:57.035Z,98259.39
2018-10-16T05:47:27.339Z,98259.82
2018-10-16T05:49:57.808Z,98262.20
2018-10-16T05:52:28.868Z,98265.06
2018-10-16T05:54:59.536Z,98264.45
2018-10-16T05:57:29.835Z,98270.70
2018-10-16T06:00:10.540Z,98268.19
2018-10-16T06:02:40.780Z,98269.33
2018-10-16T06:05:12.106Z,98267.04
2018-10-16T06:07:43.405Z,98274.47
2018-10-16T06:10:14.081Z,98278.84
2018-10-16T06:12:44.299Z,98274.86
2018-10-16T06:15:14.830Z,98286.28
2018-10-16T06:17:45.073Z,98286.45
2018-10-16T06:20:15.295Z,98287.36
2018-10-16T06:22:45.500Z,98291.82
2018-10-16T06:25:15.751Z,98290.28
2018-10-16T06:27:45.985Z,98293.19
2018-10-16T06:30:16.698Z,98293.17
2018-10-16T06:32:46.832Z,98303.02
2018-10-16T06:35:17.063Z,98303.88
2018-10-16T06:37:47.260Z,98305.87
2018-10-16T06:40:17.729Z,98299.64
2018-10-16T06:42:47.840Z,98306.38
2018-10-16T06:45:17.975Z,98306.61
2018-10-16T06:47:48.290Z,98313.36
2018-10-16T06:50:18.419Z,98310.95
2018-10-16T06:52:48.516Z,98318.56
2018-10-16T06:55:20.856Z,98314.94
2018-10-16T06:57:51.090Z,98316.09
2018-10-16T07:00:21.560Z,98323.75
2018-10-16T07:02:51.936Z,98319.69
2018-10-16T07:05:22.127Z,98313.52
2018-10-16T07:07:52.268Z,98318.41
2018-10-16T07:10:22.512Z,98326.02
2018-10-16T07:12:53.039Z,98321.48
2018-10-16T07:15:23.212Z,98323.90
2018-10-16T07:17:53.263Z,98329.74
2018-10-16T07:20:23.534Z,98333.79
2018-10-16T07:22:53.743Z,98331.14
2018-10-16T07:25:23.996Z,98337.64
2018-10-16T07:27:54.574Z,98337.53
2018-10-16T07:30:24.896Z,98336.18
2018-10-16T07:32:55.077Z,98332.45
2018-10-16T07:35:25.240Z,98332.86
2018-10-16T07:37:56.451Z,98336.66
2018-10-16T07:40:26.615Z,98339.73
2018-10-16T07:42:57.056Z,98339.39
2018-10-16T07:45:27.143Z,98338.17
2018-10-16T07:47:57.447Z,98347.03
2018-10-16T07:50:27.589Z,98342.59
2018-10-16T07:52:57.734Z,98349.54
2018-10-16T07:55:28.017Z,98351.78
2018-10-16T07:57:58.432Z,98354.69
2018-10-16T08:00:28.652Z,98358.98
2018-10-16T08:02:58.784Z,98358.03
2018-10-16T08:05:28.947Z,98363.08
2018-10-16T08:07:59.083Z,98361.42
2018-10-16T08:10:29.212Z,98365.42
2018-10-16T08:12:59.736Z,98363.34
2018-10-16T08:15:29.934Z,98366.31
2018-10-16T08:18:00.151Z,98360.70
2018-10-16T08:20:30.371Z,98365.12
2018-10-16T08:23:00.829Z,98373.15
2018-10-16T08:25:30.999Z,98366.35
2018-10-16T08:28:01.229Z,98373.19
2018-10-16T08:30:31.580Z,98371.16
2018-10-16T08:33:01.735Z,98367.13
2018-10-16T08:35:32.008Z,98375.69
2018-10-16T08:40:10.130Z,98377.48
2018-10-16T08:43:51.128Z,98377.85
2018-10-16T08:46:32.351Z,98371.73
2018-10-16T08:49:13.263Z,98382.73
2018-10-16T08:51:49.335Z,98386.72
2018-10-16T08:54:19.693Z,98387.26
2018-10-16T08:56:49.968Z,98394.09
2018-10-16T08:59:20.641Z,98392.37
2018-10-16T09:01:51.149Z,98389.88
2018-10-16T09:04:21.352Z,98387.66
2018-10-16T09:06:51.665Z,98380.47
2018-10-16T09:09:22.357Z,98373.16
2018-10-16T09:11:52.518Z,98371.39
2018-10-16T09:14:22.845Z,98372.98
2018-10-16T09:16:53.056Z,98371.10
2018-10-16T09:19:25.464Z,98371.86
2018-10-16T09:21:55.597Z,98369.80
2018-10-16T09:24:25.761Z,98374.41
2018-10-16T09:26:55.848Z,98365.62
2018-10-16T09:29:27.342Z,98380.14
2018-10-16T09:31:57.520Z,98378.37
2018-10-16T09:34:27.691Z,98376.25
2018-10-16T09:36:57.917Z,98378.56
2018-10-16T09:39:28.082Z,98372.06
2018-10-16T09:41:58.308Z,98372.99
2018-10-16T09:44:28.988Z,98372.52
2018-10-16T09:46:59.512Z,98374.69
2018-10-16T09:49:29.759Z,98382.83
2018-10-16T09:51:59.939Z,98385.70
2018-10-16T09:54:30.144Z,98389.62
2018-10-16T09:57:00.403Z,98388.19
2018-10-16T09:59:30.955Z,98392.59
2018-10-16T10:02:01.066Z,98394.52
2018-10-16T10:04:31.499Z,98388.45
2018-10-16T10:07:01.845Z,98386.17
2018-10-16T10:09:32.269Z,98382.09
2018-10-16T10:12:03.186Z,98384.91
2018-10-16T10:14:33.910Z,98380.02
2018-10-16T10:17:04.220Z,98380.02
2018-10-16T10:19:34.407Z,98380.18
2018-10-16T10:22:04.876Z,98380.34
2018-10-16T10:24:35.308Z,98376.89
2018-10-16T10:27:05.469Z,98382.63
2018-10-16T10:29:36.634Z,98374.47
2018-10-16T10:32:08.247Z,98370.34
2018-10-16T10:34:38.455Z,98360.00
2018-10-16T10:37:11.359Z,98360.84
2018-10-16T10:39:41.524Z,98360.56
2018-10-16T10:42:11.788Z,98356.23
2018-10-16T10:44:42.728Z,98360.14
2018-10-16T10:47:13.422Z,98356.41
2018-10-16T10:49:43.643Z,98357.95
2018-10-16T10:52:19.499Z,98354.39
2018-10-16T10:54:57.865Z,98348.44
2018-10-16T10:57:28.020Z,98351.12
2018-10-16T10:59:58.480Z,98347.28
2018-10-16T11:02:28.671Z,98345.66
2018-10-16T11:04:58.890Z,98341.58
2018-10-16T11:07:31.145Z,98346.63
2018-10-16T11:10:10.317Z,98347.60
2018-10-16T11:12:43.237Z,98342.61
2018-10-16T11:15:20.764Z,98337.17
2018-10-16T11:17:51.636Z,98343.83
2018-10-16T11:20:22.424Z,98338.71
2018-10-16T11:22:53.435Z,98340.78
2018-10-16T11:25:44.942Z,98341.16
2018-10-16T11:28:15.067Z,98340.08
2018-10-16T11:30:45.656Z,98337.33
2018-10-16T11:33:15.876Z,98337.33
2018-10-16T11:35:46.047Z,98337.81
2018-10-16T11:38:16.311Z,98342.53
2018-10-16T11:40:46.571Z,98333.97
2018-10-16T11:43:17.017Z,98335.47
2018-10-16T11:45:47.199Z,98335.00
2018-10-16T11:48:17.440Z,98327.87
2018-10-16T11:50:47.844Z,98330.71
2018-10-16T11:53:22.131Z,98331.41
2018-10-16T11:55:52.314Z,98329.83
2018-10-16T11:58:22.522Z,98334.78
2018-10-16T12:00:52.693Z,98335.45
2018-10-16T12:03:23.384Z,98328.58
2018-10-16T12:05:53.545Z,98330.13
2018-10-16T12:08:23.687Z,98331.61
2018-10-16T12:10:53.923Z,98333.28
2018-10-16T12:13:24.167Z,98329.64
2018-10-16T12:15:54.763Z,98328.66
2018-10-16T12:18:28.243Z,98333.12
2018-10-16T12:21:03.526Z,98324.22
2018-10-16T12:23:33.708Z,98328.00
2018-10-16T12:26:06.286Z,98327.70
2018-10-16T12:28:36.720Z,98324.32
2018-10-16T12:31:07.000Z,98329.81
2018-10-16T12:33:37.240Z,98323.98
2018-10-16T12:36:07.796Z,98327.00
2018-10-16T12:38:38.126Z,98324.17
2018-10-16T12:41:08.647Z,98323.67
2018-10-16T12:43:39.077Z,98314.48
2018-10-16T12:46:09.154Z,98327.14
2018-10-16T12:48:39.688Z,98328.38
2018-10-16T12:51:10.004Z,98332.25
2018-10-16T12:53:40.064Z,98328.31
2018-10-16T12:56:11.936Z,98327.75
2018-10-16T12:58:42.277Z,98324.48
2018-10-16T13:01:12.440Z,98317.16
2018-10-16T13:03:42.614Z,98319.84
2018-10-16T13:06:13.143Z,98317.66
2018-10-16T13:08:43.347Z,98321.48
2018-10-16T13:11:13.575Z,98321.31
2018-10-16T13:13:43.796Z,98322.47
2018-10-16T13:16:15.366Z,98318.61
2018-10-16T13:18:45.592Z,98320.88
2018-10-16T13:21:16.030Z,98309.06
2018-10-16T13:23:46.248Z,98322.20
2018-10-16T13:26:16.540Z,98321.71
2018-10-16T13:28:46.773Z,98319.91
2018-10-16T13:31:18.343Z,98319.45
2018-10-16T13:33:48.586Z,98318.47
2018-10-16T13:36:18.689Z,98318.56
2018-10-16T13:38:49.533Z,98326.95
2018-10-16T13:41:21.049Z,98323.23
2018-10-16T13:43:51.303Z,98321.58
2018-10-16T13:46:21.634Z,98321.72
2018-10-16T13:48:51.759Z,98313.73
2018-10-16T13:51:21.956Z,98321.58
2018-10-16T13:53:52.473Z,98322.22
2018-10-16T13:56:22.693Z,98311.91
2018-10-16T13:58:52.986Z,98312.23
2018-10-16T14:01:23.176Z,98312.11
2018-10-16T14:03:53.631Z,98313.81
2018-10-16T14:06:23.892Z,98311.82
2018-10-16T14:08:54.109Z,98317.16
2018-10-16T14:11:24.584Z,98315.67
2018-10-16T14:13:55.021Z,98311.66
2018-10-16T14:16:25.326Z,98310.31
2018-10-16T14:18:56.864Z,98314.00
2018-10-16T14:21:27.886Z,98314.49
2018-10-16T14:23:58.243Z,98312.82
2018-10-16T14:26:28.552Z,98312.31
2018-10-16T14:28:59.051Z,98310.81
2018-10-16T14:31:31.399Z,98313.17
2018-10-16T14:34:01.615Z,98309.48
2018-10-16T14:36:32.269Z,98314.00
2018-10-16T14:39:02.572Z,98312.50
2018-10-16T14:41:33.560Z,98315.98
2018-10-16T14:44:04.819Z,98312.50
2018-10-16T14:46:35.109Z,98308.16
2018-10-16T14:49:06.161Z,98315.84
2018-10-16T14:51:42.859Z,98310.17
2018-10-16T14:54:13.776Z,98311.48
2018-10-16T14:56:44.347Z,98315.74
2018-10-16T14:59:16.323Z,98315.96
2018-10-16T15:01:49.269Z,98299.72
2018-10-16T15:04:19.590Z,98312.00
2018-10-16T15:06:49.883Z,98308.67
2018-10-16T15:09:21.224Z,98310.48
2018-10-16T15:11:53.292Z,98308.80
2018-10-16T15:14:23.569Z,98299.80
2018-10-16T15:16:54.036Z,98305.49
2018-10-16T15:19:28.324Z,98303.16
2018-10-16T15:21:58.431Z,98302.13
2018-10-16T15:24:28.693Z,98298.21
2018-10-16T15:26:59.591Z,98308.28
2018-10-16T15:29:29.775Z,98301.89
2018-10-16T15:32:00.373Z,98304.84
2018-10-16T15:34:30.708Z,98297.46
2018-10-16T15:37:00.889Z,98302.12
2018-10-16T15:39:31.427Z,98306.39
2018-10-16T15:42:01.622Z,98309.96
2018-10-16T15:44:32.240Z,98309.20
2018-10-16T15:47:02.539Z,98309.96
2018-10-16T15:49:37.798Z,98315.68
2018-10-16T15:52:08.384Z,98316.20
2018-10-16T15:54:38.553Z,98313.57
2018-10-16T15:57:08.820Z,98314.02
2018-10-16T15:59:39.683Z,98314.93
2018-10-16T16:02:10.086Z,98317.81
2018-10-16T16:04:40.564Z,98316.86
2018-10-16T16:07:10.896Z,98315.91
2018-10-16T16:09:41.053Z,98319.54
2018-10-16T16:12:11.427Z,98317.84
2018-10-16T16:14:41.695Z,98326.36
2018-10-16T16:17:12.331Z,98326.95
2018-10-16T16:19:42.834Z,98332.94
2018-10-16T16:22:13.071Z,98330.04
2018-10-16T16:24:43.427Z,98330.42
2018-10-16T16:27:14.266Z,98323.07
2018-10-16T16:29:44.432Z,98328.03
2018-10-16T16:32:14.681Z,98333.99
2018-10-16T16:34:44.885Z,98333.33
2018-10-16T16:37:15.166Z,98335.81
2018-10-16T16:39:46.829Z,98347.37
2018-10-16T16:42:17.844Z,98341.22
2018-10-16T16:44:48.164Z,98339.90
2018-10-16T16:47:18.428Z,98341.09
2018-10-16T16:49:52.910Z,98334.64
2018-10-16T16:52:23.495Z,98336.27
2018-10-16T16:54:53.878Z,98341.70
2018-10-16T16:57:24.364Z,98334.77
2018-10-16T16:59:56.942Z,98340.86
2018-10-16T17:02:27.173Z,98337.66
2018-10-16T17:04:57.459Z,98343.92
2018-10-16T17:07:28.073Z,98340.86
2018-10-16T17:09:58.423Z,98341.48
2018-10-16T17:12:28.736Z,98340.55
2018-10-16T17:15:00.472Z,98343.48
2018-10-16T17:17:30.787Z,98344.70
2018-10-16T17:20:01.001Z,98347.47
2018-10-16T17:22:31.154Z,98350.60
2018-10-16T17:25:01.921Z,98349.76
2018-10-16T17:27:34.053Z,98354.00
2018-10-16T17:30:09.768Z,98360.71
2018-10-16T17:32:40.020Z,98362.97
2018-10-16T17:35:12.909Z,98358.42
2018-10-16T17:37:50.793Z,98363.34
2018-10-16T17:40:21.402Z,98369.22
2018-10-16T17:42:52.225Z,98369.70
2018-10-16T17:45:22.898Z,98368.62
2018-10-16T17:47:53.614Z,98359.63
2018-10-16T17:50:27.468Z,98373.28
2018-10-16T17:52:57.870Z,98372.71
2018-10-16T17:55:28.628Z,98373.76
2018-10-16T17:57:58.818Z,98370.41
2018-10-16T18:00:28.941Z,98375.91
2018-10-16T18:02:59.271Z,98378.41
2018-10-16T18:05:31.458Z,98379.16
2018-10-16T18:08:03.077Z,98384.05
2018-10-16T18:10:33.551Z,98380.19
2018-10-16T18:13:05.198Z,98385.45
2018-10-16T18:15:36.894Z,98391.32
2018-10-16T18:18:07.520Z,98384.25
2018-10-16T18:20:37.801Z,98386.74
2018-10-16T18:23:08.674Z,98386.13
2018-10-16T18:25:39.436Z,98392.31
2018-10-16T18:28:11.249Z,98391.90
2018-10-16T18:30:41.800Z,98390.28
2018-10-16T18:33:12.152Z,98390.39
2018-10-16T18:35:44.795Z,98388.77
2018-10-16T18:38:15.286Z,98390.34
2018-10-16T18:40:46.224Z,98383.36
2018-10-16T18:43:16.807Z,98390.36
2018-10-16T18:45:47.324Z,98391.52
2018-10-16T18:48:18.401Z,98382.41
2018-10-16T18:50:50.450Z,98382.84
2018-10-16T18:53:21.958Z,98387.70
2018-10-16T18:55:54.407Z,98386.81
2018-10-16T19:01:01.267Z,98391.53
2018-10-16T19:03:31.694Z,98394.68
2018-10-16T19:06:04.025Z,98402.27
2018-10-16T19:08:37.564Z,98397.56
2018-10-16T19:11:15.609Z,98397.44
2018-10-16T19:13:46.327Z,98400.87
2018-10-16T19:16:17.445Z,98408.13
2018-10-16T19:18:48.884Z,98398.72
2018-10-16T19:21:19.559Z,98400.58
2018-10-16T19:23:52.201Z,98397.57
2018-10-16T19:26:22.812Z,98395.57
2018-10-16T19:28:53.229Z,98402.55
2018-10-16T19:31:24.683Z,98400.78
2018-10-16T19:34:07.904Z,98412.08
2018-10-16T19:36:38.294Z,98404.98
2018-10-16T19:39:11.077Z,98407.41
2018-10-16T19:41:42.422Z,98408.93
2018-10-16T19:44:12.709Z,98407.65
2018-10-16T19:46:43.257Z,98413.75
2018-10-16T19:49:14.226Z,98412.47
2018-10-16T19:51:46.563Z,98410.42
2018-10-16T19:54:19.263Z,98412.67
2018-10-16T19:56:50.215Z,98411.68
2018-10-16T19:59:20.485Z,98410.05
2018-10-16T20:01:51.477Z,98411.36
2018-10-16T20:04:23.384Z,98407.35
2018-10-16T20:06:54.175Z,98408.02
2018-10-16T20:09:24.755Z,98401.55
2018-10-16T20:11:55.615Z,98403.64
2018-10-16T20:14:25.874Z,98399.44
2018-10-16T20:16:57.114Z,98398.99
2018-10-16T20:19:27.654Z,98398.91
2018-10-16T20:22:00.334Z,98400.77
2018-10-16T20:24:31.021Z,98403.31
2018-10-16T20:30:16.237Z,98402.38
2018-10-16T20:32:46.739Z,98391.83
2018-10-16T20:35:17.231Z,98405.87
2018-10-16T20:37:47.741Z,98404.61
2018-10-16T20:40:17.934Z,98408.11
2018-10-16T20:42:48.468Z,98409.88
2018-10-16T20:45:18.572Z,98401.13
2018-10-16T20:47:49.810Z,98407.48
2018-10-16T20:50:20.242Z,98406.38
2018-10-16T20:52:50.423Z,98416.87
2018-10-16T20:55:20.551Z,98408.15
2018-10-16T20:57:50.804Z,98412.71
2018-10-16T21:00:21.459Z,98414.14
2018-10-16T21:02:51.671Z,98415.34
2018-10-16T21:05:22.219Z,98415.28
2018-10-16T21:07:52.179Z,98413.09
2018-10-16T21:10:23.999Z,98411.05
2018-10-16T21:12:54.450Z,98403.95
2018-10-16T21:15:25.016Z,98400.41
2018-10-16T21:17:55.726Z,98401.71
2018-10-16T21:20:25.853Z,98401.16
2018-10-16T21:22:56.229Z,98401.28
2018-10-16T21:25:26.559Z,98399.12
2018-10-16T21:27:58.098Z,98395.38
2018-10-16T21:30:29.153Z,98393.79
2018-10-16T21:32:59.508Z,98397.06
2018-10-16T21:35:31.397Z,98396.03
2018-10-16T21:38:01.736Z,98404.27
2018-10-16T21:40:32.103Z,98392.58
2018-10-16T21:43:02.467Z,98399.03
2018-10-16T21:45:32.898Z,98397.06
2018-10-16T21:48:03.224Z,98394.91
2018-10-16T21:50:34.779Z,98403.61
2018-10-16T21:53:05.098Z,98392.28
2018-10-16T21:55:35.686Z,98397.64
2018-10-16T21:58:06.244Z,98397.82
2018-10-16T22:00:41.843Z,98390.52
2018-10-16T22:03:11.931Z,98387.52
2018-10-16T22:05:42.133Z,98391.27
2018-10-16T22:08:12.683Z,98384.98
2018-10-16T22:10:43.327Z,98390.34
2018-10-16T22:13:13.635Z,98383.60
2018-10-16T22:15:44.108Z,98382.28
2018-10-16T22:18:14.304Z,98381.81
2018-10-16T22:20:44.643Z,98378.45
2018-10-16T22:23:16.708Z,98375.72
2018-10-16T22:25:47.522Z,98370.31
2018-10-16T22:28:17.643Z,98374.60
2018-10-16T22:30:48.010Z,98373.84
2018-10-16T22:33:18.160Z,98371.63
2018-10-16T22:35:48.329Z,98374.25
2018-10-16T22:38:18.900Z,98374.97
2018-10-16T22:40:49.031Z,98377.58
2018-10-16T22:43:19.185Z,98376.56
2018-10-16T22:45:49.353Z,98391.53
2018-10-16T22:48:19.522Z,98395.53
2018-10-16T22:50:49.960Z,98401.13
2018-10-16T22:53:20.068Z,98403.95
2018-10-16T22:55:50.803Z,98409.64
2018-10-16T22:58:21.036Z,98406.75
2018-10-16T23:00:51.305Z,98412.41
2018-10-16T23:03:21.626Z,98412.02
2018-10-16T23:05:53.260Z,98425.73
2018-10-16T23:08:23.724Z,98426.66
2018-10-16T23:10:53.926Z,98427.12
2018-10-16T23:13:24.123Z,98423.87
2018-10-16T23:15:54.267Z,98425.18
2018-10-16T23:18:26.273Z,98413.80
2018-10-16T23:20:56.497Z,98408.56
2018-10-16T23:23:26.736Z,98407.99
2018-10-16T23:25:57.092Z,98394.34
2018-10-16T23:28:27.540Z,98402.69
2018-10-16T23:30:57.732Z,98407.46
2018-10-16T23:33:27.860Z,98406.61
2018-10-16T23:35:58.536Z,98404.45
2018-10-16T23:38:28.615Z,98407.95
2018-10-16T23:40:59.214Z,98401.13
2018-10-16T23:43:29.708Z,98397.14
2018-10-16T23:45:59.763Z,98407.56
2018-10-16T23:48:29.907Z,98399.04
2018-10-16T23:51:00.353Z,98397.56
2018-10-16T23:53:31.024Z,98395.33
2018-10-16T23:56:01.154Z,98393.39
2018-10-16T23:58:31.439Z,98399.86
